Latest Weather Observations for Cunderdin Airport

IDW60801

Issued at 11:34 am WST Wednesday 22 February 2017 (issued every 30 minutes, with the page automatically refreshed every 10 minutes)

About weather observations | Map of weather stations | Latest weather observations for WA | Other Formats
Station Details ID: 010286 Name: CUNDERDIN AIRFIELD Lat: -31.62 Lon: 117.22 Height: 216.7 m
Data from the previous 72 hours. | See also: Recent months at Cunderdin Airport
Date/Time
WST
Temp
°C
App
Temp
°C
Dew
Point
°C
Rel
Hum
%
Delta-T
°C
Wind Press
QNH
hPa
Press
MSL
hPa
Rain since
9am
mm
Dir  Spd
km/h
Gust
km/h
Spd
kts
Gust
kts
22/11:30am 20.7 18.5 7.7 43 6.8 SE 9 17 5 9 1021.6 1020.4 0.0
22/11:00am 19.9 17.3 7.9 46 6.2 E 11 20 6 11 1021.8 1020.6 0.0
22/10:30am 20.0 17.8 8.0 46 6.3 ESE 9 17 5 9 1022.2 1021.0 0.0
22/10:00am 18.4 16.0 6.9 47 5.8 SE 9 17 5 9 1022.3 1021.1 0.0
22/09:30am 17.6 15.0 7.6 52 5.1 SSE 11 17 6 9 1022.3 1021.1 0.0
22/09:00am 17.6 14.5 7.4 51 5.2 SE 13 19 7 10 1022.3 1021.1 0.0
22/08:30am 16.3 13.1 7.0 54 4.7 SE 13 20 7 11 1022.3 1021.1 0.0
22/08:00am 15.5 12.5 7.8 60 3.9 SSW 13 17 7 9 1022.2 1021.0 0.0
22/07:30am 14.4 11.4 7.7 64 3.4 S 13 17 7 9 1022.0 1020.8 0.0
22/07:00am 12.7 10.1 7.8 72 2.4 S 11 13 6 7 1021.7 1020.5 0.0
22/06:30am 10.8 8.5 7.3 79 1.7 SSW 9 11 5 6 1021.2 1020.0 0.0
22/06:00am 10.1 8.0 6.6 79 1.7 S 7 11 4 6 1020.8 1019.6 0.0
22/05:30am 9.9 8.7 6.6 80 1.6 S 2 7 1 4 1020.4 1019.2 0.0
22/05:00am 10.1 9.5 7.2 82 1.4 CALM 0 0 0 0 1020.1 1018.9 0.0
22/04:30am 10.1 9.3 6.6 79 1.7 CALM 0 7 0 4 1019.9 1018.7 0.0
22/04:00am 10.6 8.5 6.7 77 1.9 SSW 7 9 4 5 1019.8 1018.6 0.0
22/03:30am 10.9 8.5 6.8 76 2.0 SSW 9 11 5 6 1019.5 1018.3 0.0
22/03:00am 11.3 9.2 6.8 74 2.2 SSW 7 11 4 6 1019.4 1018.2 0.0
22/02:30am 11.3 9.3 7.2 76 2.0 SW 7 11 4 6 1019.1 1018.0 0.0
22/02:00am 11.1 9.4 8.3 83 1.4 W 7 9 4 5 1018.9 1017.8 0.0
22/01:30am 11.0 9.3 8.2 83 1.4 WNW 7 9 4 5 1018.8 1017.6 0.0
22/01:00am 11.6 10.1 8.3 80 1.6 WSW 6 7 3 4 1018.9 1017.8 0.0
22/12:30am 11.9 10.3 8.2 78 1.8 W 6 7 3 4 1019.0 1017.9 0.0
22/12:00am 12.5 10.4 8.2 75 2.1 SW 9 11 5 6 1018.8 1017.6 0.0
 
Date/Time
WST
Temp
°C
App
Temp
°C
Dew
Point
°C
Rel
Hum
%
Delta-T
°C
Wind Press
QNH
hPa
Press
MSL
hPa
Rain since
9am
mm
Dir  Spd
km/h
Gust
km/h
Spd
kts
Gust
kts
21/11:30pm 13.2 10.6 7.9 70 2.6 SSW 11 15 6 8 1018.5 1017.3 0.0
21/11:00pm 13.7 10.7 7.9 68 2.9 SSW 13 17 7 9 1018.5 1017.3 0.0
21/10:30pm 14.4 11.4 7.7 64 3.4 SW 13 17 7 9 1018.6 1017.4 0.0
21/10:00pm 14.3 11.7 7.8 65 3.3 SW 11 13 6 7 1018.5 1017.3 0.0
21/09:30pm 15.1 12.5 7.9 62 3.6 WSW 11 15 6 8 1018.2 1017.0 0.0
21/09:00pm 15.7 12.7 7.5 58 4.1 WSW 13 15 7 8 1018.0 1016.8 0.0
21/08:30pm 16.3 13.1 7.0 54 4.7 WSW 13 15 7 8 1017.6 1016.4 0.0
21/08:00pm 17.0 13.3 6.5 50 5.2 SW 15 19 8 10 1017.2 1016.0 0.0
21/07:30pm 17.9 13.4 6.1 46 5.9 SW 19 26 10 14 1016.9 1015.7 0.0
21/07:00pm 18.8 13.6 5.3 41 6.6 SW 22 30 12 16 1016.6 1015.4 0.0
21/06:30pm 19.8 13.8 5.5 39 7.1 SW 26 33 14 18 1016.0 1014.8 0.0
21/06:00pm 20.9 15.0 5.7 37 7.6 SW 26 35 14 19 1015.3 1014.1 0.0
21/05:30pm 21.7 15.8 5.6 35 8.1 SW 26 35 14 19 1014.8 1013.5 0.0
21/05:00pm 22.3 16.2 6.5 36 8.1 SW 28 43 15 23 1014.6 1013.3 0.0
21/04:30pm 22.6 15.4 6.0 34 8.5 SW 33 50 18 27 1013.9 1012.7 0.0
21/04:00pm 22.6 14.9 5.5 33 8.7 WSW 35 46 19 25 1013.9 1012.7 0.0
21/03:35pm 23.0 15.9 5.4 32 8.9 WSW 32 50 17 27 1013.8 1012.6 0.0
21/03:30pm 23.1 15.2 4.6 30 9.2 SW 35 50 19 27 1013.8 1012.6 0.0
21/03:00pm 22.7 14.7 5.6 33 8.7 WSW 37 52 20 28 1013.7 1012.5 0.0
21/02:55pm 23.7 16.7 6.0 32 9.1 SW 32 52 17 28 1013.6 1012.4 0.0
21/02:30pm 23.8 16.4 6.6 33 9.0 SW 35 48 19 26 1013.7 1012.5 0.0
21/02:00pm 23.1 16.1 6.0 33 8.8 WSW 32 65 17 35 1013.6 1012.4 0.0
21/01:47pm 23.2 16.1 5.6 32 9.0 WSW 32 50 17 27 1013.6 1012.4 0.0
21/01:30pm 22.6 14.9 5.5 33 8.7 WSW 35 46 19 25 1013.6 1012.4 0.0
21/01:11pm 23.5 16.2 7.2 35 8.6 WSW 35 56 19 30 1013.4 1012.2 0.0
21/01:00pm 22.8 16.5 7.4 37 8.1 W 30 46 16 25 1013.5 1012.3 0.0
21/12:34pm 22.2 14.8 6.8 37 8.0 WSW 35 54 19 29 1013.6 1012.4 0.0
21/12:30pm 22.8 15.2 7.4 37 8.1 SW 37 46 20 25 1013.6 1012.4 0.0
21/12:00pm 22.0 14.3 7.0 38 7.8 WSW 37 48 20 26 1013.8 1012.6 0.0
21/11:30am 21.7 13.0 7.9 41 7.3 WSW 43 56 23 30 1014.0 1012.8 0.0
21/11:00am 20.7 12.6 9.9 50 5.9 WSW 43 59 23 32 1014.2 1013.0 0.0
21/10:58am 19.8 12.0 9.7 52 5.4 WSW 41 59 22 32 1014.1 1012.9 0.0
21/10:30am 20.3 13.5 10.7 54 5.3 WSW 37 50 20 27 1014.2 1013.0 0.0
21/10:00am 18.6 12.8 12.8 69 3.3 WSW 35 44 19 24 1014.3 1013.1 0.0
21/09:30am 16.4 11.7 14.4 88 1.2 WSW 32 43 17 23 1014.1 1012.9 0.0
21/09:14am 16.0 10.0 13.3 84 1.5 WSW 37 56 20 30 1013.9 1012.7 0.0
21/09:00am 18.6 13.5 13.0 70 3.2 W 32 39 17 21 1013.5 1012.3 0.0
21/08:30am 18.0 11.2 11.8 67 3.4 W 39 50 21 27 1013.2 1012.0 0.0
21/08:00am 18.9 13.4 11.9 64 3.9 WNW 32 44 17 24 1012.7 1011.5 0.0
21/07:30am 17.3 12.2 11.8 70 3.0 WNW 30 41 16 22 1012.4 1011.2 0.0
21/07:00am 15.7 11.6 11.3 75 2.4 WNW 24 30 13 16 1012.3 1011.1 0.0
21/06:30am 14.5 11.7 11.3 81 1.7 NW 17 22 9 12 1012.1 1010.9 0.0
21/06:00am 13.3 11.1 10.8 85 1.3 WNW 13 17 7 9 1012.2 1011.0 0.0
21/05:30am 13.6 11.4 10.8 83 1.5 WNW 13 17 7 9 1011.7 1010.5 0.0
21/05:00am 14.0 11.4 10.8 81 1.7 WNW 15 19 8 10 1011.5 1010.3 0.0
21/04:30am 14.0 11.9 11.0 82 1.6 WNW 13 17 7 9 1011.4 1010.2 0.0
21/04:00am 14.1 12.4 11.3 83 1.5 WNW 11 13 6 7 1011.3 1010.1 0.0
21/03:30am 14.5 12.0 11.1 80 1.8 W 15 20 8 11 1011.6 1010.4 0.0
21/03:00am 15.1 12.2 10.9 76 2.3 W 17 22 9 12 1011.9 1010.7 0.0
21/02:30am 15.4 11.5 10.8 74 2.5 WSW 22 28 12 15 1011.9 1010.7 0.0
21/02:00am 15.6 11.5 11.4 76 2.3 W 24 30 13 16 1011.9 1010.7 0.0
21/01:30am 15.8 12.5 11.6 76 2.3 W 20 28 11 15 1011.9 1010.7 0.0
21/01:00am 16.2 11.8 11.8 75 2.4 WSW 26 32 14 17 1012.2 1011.0 0.0
21/12:30am 16.1 13.2 12.3 78 2.1 W 19 22 10 12 1012.3 1011.1 0.0
21/12:00am 16.3 14.7 12.8 80 2.0 WNW 13 17 7 9 1012.2 1011.0 0.0
 
Date/Time
WST
Temp
°C
App
Temp
°C
Dew
Point
°C
Rel
Hum
%
Delta-T
°C
Wind Press
QNH
hPa
Press
MSL
hPa
Rain since
9am
mm
Dir  Spd
km/h
Gust
km/h
Spd
kts
Gust
kts
20/11:30pm 16.7 15.2 13.2 80 2.0 WNW 13 17 7 9 1012.2 1011.0 0.0
20/11:00pm 17.2 14.4 13.3 78 2.2 WSW 20 28 11 15 1012.5 1011.3 0.0
20/10:30pm 17.6 14.5 13.3 76 2.4 W 22 30 12 16 1012.5 1011.3 0.0
20/10:00pm 18.1 14.2 13.4 74 2.7 W 26 33 14 18 1012.4 1011.2 0.0
20/09:30pm 19.0 15.1 13.2 69 3.3 W 26 35 14 19 1012.1 1010.9 0.0
20/09:00pm 19.8 16.7 13.3 66 3.7 W 22 30 12 16 1011.9 1010.7 0.0
20/08:30pm 21.0 16.5 12.7 59 4.7 W 28 35 15 19 1011.8 1010.6 0.0
20/08:00pm 22.5 17.4 13.0 55 5.5 W 32 39 17 21 1011.3 1010.1 0.0
20/07:30pm 24.4 19.7 13.3 50 6.5 W 30 37 16 20 1010.6 1009.3 0.0
20/07:00pm 26.2 21.7 11.5 40 8.5 W 26 33 14 18 1009.9 1008.6 0.0
20/06:30pm 27.2 24.1 11.7 38 9.0 W 19 26 10 14 1009.2 1008.0 0.0
20/06:00pm 28.7 25.4 14.1 40 8.9 W 24 30 13 16 1008.8 1007.6 0.0
20/05:30pm 29.9 27.7 14.8 39 9.3 W 20 28 11 15 1008.7 1007.5 0.0
20/05:00pm 30.5 27.4 14.6 38 9.8 W 24 32 13 17 1008.9 1007.7 0.0
20/04:30pm 31.1 28.1 14.7 37 10.1 W 24 33 13 18 1008.8 1007.6 0.0
20/04:00pm 31.7 29.4 15.6 37 10.1 WSW 22 30 12 16 1008.7 1007.5 0.0
20/03:30pm 32.2 29.0 15.2 35 10.6 WSW 26 35 14 19 1008.8 1007.6 0.0
20/03:00pm 32.2 29.7 15.2 35 10.6 W 22 32 12 17 1008.9 1007.7 0.0
20/02:30pm 32.1 29.4 15.6 37 10.3 WSW 24 35 13 19 1009.6 1008.3 0.0
20/02:00pm 31.7 29.5 16.0 38 9.9 WSW 22 30 12 16 1010.3 1009.0 0.0
20/01:30pm 30.4 28.7 15.7 41 9.2 WSW 19 30 10 16 1010.7 1009.4 0.0
20/01:00pm 30.9 30.5 16.1 41 9.3 WSW 13 20 7 11 1011.0 1009.8 0.0
20/12:30pm 31.1 30.6 15.9 40 9.5 W 13 22 7 12 1011.2 1010.0 0.0
20/12:00pm 30.6 30.4 15.8 40 9.3 WSW 11 17 6 9 1011.5 1010.3 0.0
20/11:30am 30.0 30.6 16.8 45 8.4 WNW 9 19 5 10 1012.1 1010.9 0.0
20/11:00am 29.1 29.0 16.0 45 8.2 WSW 11 17 6 9 1012.4 1011.2 0.0
20/10:30am 28.5 28.3 16.7 48 7.4 WSW 13 20 7 11 1012.7 1011.5 0.0
20/10:00am 27.7 29.3 16.9 51 6.8 SSW 4 11 2 6 1012.8 1011.6 0.0
20/09:30am 27.2 27.9 17.1 54 6.4 WSW 9 15 5 8 1013.0 1011.8 0.0
20/09:00am 26.2 26.6 17.3 58 5.6 SW 11 19 6 10 1012.9 1011.7 0.0
20/08:30am 25.0 24.4 17.5 63 4.7 SW 17 22 9 12 1012.9 1011.7 0.0
20/08:00am 23.7 23.0 17.4 68 3.9 WSW 17 20 9 11 1013.0 1011.8 0.0
20/07:30am 22.6 22.7 18.4 77 2.7 W 15 20 8 11 1012.8 1011.6 0.0
20/07:00am 21.7 22.2 18.3 81 2.1 WNW 13 17 7 9 1012.5 1011.3 0.0
20/06:30am 20.9 21.6 18.8 88 1.3 W 13 17 7 9 1012.5 1011.3 0.0
20/06:00am 20.4 22.0 19.1 92 0.8 WNW 9 13 5 7 1012.1 1010.9 0.0
20/05:30am 20.7 22.2 19.0 90 1.1 NW 9 9 5 5 1011.8 1010.6 0.0
20/05:00am 21.1 22.4 19.2 89 1.2 NW 11 13 6 7 1011.6 1010.4 0.0
20/04:30am 21.3 22.8 19.0 87 1.5 WNW 9 11 5 6 1011.7 1010.5 0.0
20/04:00am 21.7 22.6 19.3 86 1.5 WSW 13 15 7 8 1011.5 1010.3 0.0
20/03:30am 22.3 23.7 19.5 84 1.8 W 11 15 6 8 1011.9 1010.7 0.0
20/03:00am 22.3 23.2 19.3 83 1.9 W 13 15 7 8 1012.2 1011.0 0.0
20/02:30am 23.0 24.6 19.2 79 2.4 WSW 9 13 5 7 1012.4 1011.2 0.0
20/02:00am 23.9 25.2 18.5 72 3.4 W 9 15 5 8 1012.7 1011.5 0.0
20/01:30am 24.2 25.6 18.6 71 3.6 WNW 9 13 5 7 1013.0 1011.8 0.0
20/01:00am 25.3 24.6 18.2 64 4.5 NNW 19 22 10 12 1013.0 1011.8 0.0
20/12:30am 25.9 24.5 18.8 65 4.6 N 24 33 13 18 1013.3 1012.1 0.0
20/12:00am 25.3 26.2 19.2 69 3.9 WNW 13 15 7 8 1012.6 1011.4 0.0
 
Date/Time
WST
Temp
°C
App
Temp
°C
Dew
Point
°C
Rel
Hum
%
Delta-T
°C
Wind Press
QNH
hPa
Press
MSL
hPa
Rain since
9am
mm
Dir  Spd
km/h
Gust
km/h
Spd
kts
Gust
kts
19/11:30pm 25.3 26.8 19.7 71 3.6 WNW 11 11 6 6 1012.7 1011.5 0.0
19/11:00pm 25.6 27.1 19.7 70 3.8 WNW 11 13 6 7 1012.6 1011.4 0.0
19/10:30pm 25.9 28.3 20.0 70 3.9 WNW 7 9 4 5 1012.6 1011.4 0.0
19/10:00pm 25.9 28.7 20.5 72 3.6 W 6 9 3 5 1013.0 1011.8 0.0
19/09:30pm 26.4 28.8 20.0 68 4.2 WSW 7 11 4 6 1013.0 1011.8 0.0
19/09:00pm 26.8 28.8 19.9 66 4.5 WNW 9 11 5 6 1013.1 1011.9 0.0
19/08:30pm 27.8 29.6 19.6 61 5.4 W 9 11 5 6 1012.7 1011.5 0.0
19/08:00pm 28.6 30.0 19.5 58 6.0 WNW 11 13 6 7 1012.3 1011.1 0.0
19/07:30pm 30.1 30.6 19.2 52 7.1 W 15 19 8 10 1011.9 1010.7 0.0
19/07:00pm 32.1 31.3 17.9 42 9.2 WSW 19 26 10 14 1011.6 1010.4 0.0
19/06:41pm 32.9 32.3 17.5 39 9.9 W 17 33 9 18 1011.5 1010.3 0.0
19/06:30pm 35.1 35.7 15.9 31 12.2 WSW 7 9 4 5 1011.3 1010.1 0.0
19/06:00pm 35.9 35.5 15.1 29 13.1 W 11 13 6 7 1011.3 1010.1 0.0
19/05:30pm 36.8 36.1 15.3 28 13.6 W 13 15 7 8 1011.2 1010.0 0.0
19/05:00pm 37.2 36.4 13.9 25 14.5 NW 11 17 6 9 1011.4 1010.2 0.0
19/04:30pm 37.1 35.8 13.8 25 14.5 WNW 13 20 7 11 1011.5 1010.3 0.0
19/04:00pm 37.2 36.9 14.5 26 14.3 WSW 9 17 5 9 1011.7 1010.5 0.0
19/03:30pm 37.2 36.2 14.5 26 14.3 NNW 13 24 7 13 1012.1 1010.9 0.0
19/03:00pm 36.8 34.7 13.5 24 14.4 NW 17 26 9 14 1012.4 1011.2 0.0
19/02:30pm 35.9 34.7 14.0 27 13.6 N 13 19 7 10 1012.8 1011.6 0.0
19/02:00pm 35.9 34.3 12.8 25 14.1 NNW 13 20 7 11 1013.2 1012.0 0.0
19/01:30pm 35.2 32.9 11.6 24 14.1 NNW 15 24 8 13 1013.8 1012.6 0.0
19/01:00pm 35.1 32.3 11.5 24 14.1 N 17 26 9 14 1014.3 1013.1 0.0
19/12:30pm 34.5 31.8 12.8 27 13.2 N 19 30 10 16 1014.7 1013.4 0.0
19/12:00pm 34.0 31.7 12.9 28 12.8 N 17 26 9 14 1015.2 1014.0 0.0

Other Formats:

Comma delimited format used in spreadsheet applications
http://www.bom.gov.au/fwo/IDW60801/IDW60801.95625.axf

JavaScript Object Notation format (JSON) in row-major order
http://www.bom.gov.au/fwo/IDW60801/IDW60801.95625.json